createdAt,value
2018-07-24T00:00:38.194Z,72.17
2018-07-24T00:03:07.086Z,71.51
2018-07-24T00:05:36.000Z,71.44
2018-07-24T00:08:05.124Z,71.46
2018-07-24T00:10:34.012Z,72.08
2018-07-24T00:13:02.951Z,72.49
2018-07-24T00:15:31.854Z,72.51
2018-07-24T00:18:00.750Z,72.23
2018-07-24T00:20:29.988Z,72.32
2018-07-24T00:22:58.890Z,72.78
2018-07-24T00:25:27.780Z,72.52
2018-07-24T00:27:56.687Z,72.81
2018-07-24T00:30:25.630Z,72.96
2018-07-24T00:32:54.542Z,72.89
2018-07-24T00:35:23.429Z,73.06
2018-07-24T00:37:52.421Z,73.35
2018-07-24T00:40:21.371Z,73.14
2018-07-24T00:42:50.304Z,73.38
2018-07-24T00:45:19.227Z,73.33
2018-07-24T00:47:48.156Z,73.57
2018-07-24T00:50:17.054Z,73.70
2018-07-24T00:52:45.977Z,73.21
2018-07-24T00:55:14.889Z,73.57
2018-07-24T00:57:43.802Z,73.89
2018-07-24T01:00:12.776Z,73.89
2018-07-24T01:02:41.910Z,73.91
2018-07-24T01:05:10.904Z,73.17
2018-07-24T01:07:39.838Z,73.41
2018-07-24T01:10:10.492Z,73.85
2018-07-24T01:12:39.740Z,73.91
2018-07-24T01:15:08.834Z,73.54
2018-07-24T01:17:37.728Z,74.15
2018-07-24T01:20:06.898Z,73.97
2018-07-24T01:22:35.866Z,73.56
2018-07-24T01:25:04.849Z,73.75
2018-07-24T01:27:33.757Z,73.92
2018-07-24T01:30:02.756Z,74.03
2018-07-24T01:32:31.866Z,74.39
2018-07-24T01:35:00.769Z,74.37
2018-07-24T01:37:29.727Z,74.28
2018-07-24T01:39:58.643Z,74.13
2018-07-24T01:42:27.614Z,74.35
2018-07-24T01:44:56.598Z,74.38
2018-07-24T01:47:25.481Z,73.71
2018-07-24T01:49:54.386Z,74.58
2018-07-24T01:52:23.309Z,74.56
2018-07-24T01:54:52.519Z,74.37
2018-07-24T01:57:21.684Z,74.63
2018-07-24T01:59:50.593Z,74.34
2018-07-24T02:02:19.540Z,74.72
2018-07-24T02:04:48.460Z,74.72
2018-07-24T02:07:17.547Z,74.38
2018-07-24T02:09:46.504Z,74.70
2018-07-24T02:12:15.393Z,74.96
2018-07-24T02:14:44.285Z,74.87
2018-07-24T02:17:13.204Z,74.60
2018-07-24T02:19:42.109Z,74.53
2018-07-24T02:22:11.072Z,74.49
2018-07-24T02:24:39.983Z,75.05
2018-07-24T02:27:08.879Z,74.75
2018-07-24T02:29:38.234Z,74.77
2018-07-24T02:32:07.394Z,74.63
2018-07-24T02:34:36.551Z,75.19
2018-07-24T02:37:05.483Z,74.93
2018-07-24T02:39:34.413Z,75.01
2018-07-24T02:42:03.332Z,75.11
2018-07-24T02:44:35.741Z,75.18
2018-07-24T02:47:04.669Z,75.61
2018-07-24T02:49:33.644Z,75.33
2018-07-24T02:52:02.666Z,74.93
2018-07-24T02:54:31.580Z,74.89
2018-07-24T02:57:00.484Z,75.22
2018-07-24T02:59:29.397Z,75.19
2018-07-24T03:01:58.313Z,75.40
2018-07-24T03:04:27.217Z,75.41
2018-07-24T03:06:56.152Z,75.13
2018-07-24T03:09:25.068Z,75.41
2018-07-24T03:11:53.984Z,75.63
2018-07-24T03:14:22.893Z,75.40
2018-07-24T03:16:51.815Z,75.76
2018-07-24T03:19:20.902Z,75.53
2018-07-24T03:21:49.793Z,75.74
2018-07-24T03:24:18.878Z,75.54
2018-07-24T03:26:48.056Z,75.89
2018-07-24T03:29:17.010Z,76.17
2018-07-24T03:31:46.342Z,76.08
2018-07-24T03:34:15.315Z,76.09
2018-07-24T03:36:47.404Z,76.16
2018-07-24T03:39:16.599Z,75.71
2018-07-24T03:41:45.566Z,75.97
2018-07-24T03:44:15.095Z,75.74
2018-07-24T03:46:44.010Z,76.42
2018-07-24T03:49:12.921Z,76.66
2018-07-24T03:51:41.848Z,76.46
2018-07-24T03:54:10.971Z,76.79
2018-07-24T03:56:39.875Z,76.51
2018-07-24T03:59:08.793Z,75.97
2018-07-24T04:01:38.033Z,75.97
2018-07-24T04:04:08.467Z,75.73
2018-07-24T04:06:37.591Z,75.86
2018-07-24T04:09:08.410Z,75.73
2018-07-24T04:11:37.679Z,75.67
2018-07-24T04:14:06.968Z,75.70
2018-07-24T04:16:36.269Z,76.07
2018-07-24T04:19:05.174Z,75.90
2018-07-24T04:21:34.071Z,75.41
2018-07-24T04:24:03.006Z,75.32
2018-07-24T04:26:31.966Z,75.40
2018-07-24T04:29:00.898Z,75.81
2018-07-24T04:31:30.021Z,75.57
2018-07-24T04:33:59.511Z,75.87
2018-07-24T04:36:28.714Z,75.85
2018-07-24T04:38:57.945Z,76.04
2018-07-24T04:41:27.101Z,75.87
2018-07-24T04:43:56.275Z,75.74
2018-07-24T04:46:25.446Z,75.72
2018-07-24T04:48:54.720Z,75.91
2018-07-24T04:51:23.639Z,76.13
2018-07-24T04:53:52.529Z,75.51
2018-07-24T04:56:21.438Z,75.65
2018-07-24T04:58:50.333Z,76.08
2018-07-24T05:01:19.448Z,75.72
2018-07-24T05:03:48.495Z,75.83
2018-07-24T05:06:17.442Z,76.14
2018-07-24T05:08:46.323Z,75.75
2018-07-24T05:11:15.257Z,75.69
2018-07-24T05:13:44.204Z,75.61
2018-07-24T05:16:14.118Z,75.75
2018-07-24T05:18:43.029Z,76.20
2018-07-24T05:21:11.961Z,75.72
2018-07-24T05:23:40.964Z,75.44
2018-07-24T05:26:10.621Z,75.20
2018-07-24T05:28:39.539Z,74.87
2018-07-24T05:31:08.431Z,74.95
2018-07-24T05:33:37.355Z,74.31
2018-07-24T05:36:06.262Z,74.43
2018-07-24T05:38:35.192Z,74.06
2018-07-24T05:41:04.149Z,73.87
2018-07-24T05:43:33.096Z,73.88
2018-07-24T05:46:02.129Z,74.07
2018-07-24T05:48:31.184Z,73.93
2018-07-24T05:51:00.026Z,73.61
2018-07-24T05:53:28.943Z,73.60
2018-07-24T05:55:57.863Z,73.02
2018-07-24T05:58:26.812Z,72.48
2018-07-24T06:00:55.731Z,72.14
2018-07-24T06:03:24.728Z,71.82
2018-07-24T06:05:53.637Z,71.90
2018-07-24T06:08:22.535Z,71.48
2018-07-24T06:10:51.448Z,71.02
2018-07-24T06:13:20.373Z,71.29
2018-07-24T06:15:49.263Z,71.12
2018-07-24T06:18:18.199Z,70.86
2018-07-24T06:20:47.119Z,70.38
2018-07-24T06:23:16.045Z,69.97
2018-07-24T06:25:44.972Z,69.39
2018-07-24T06:28:14.320Z,69.53
2018-07-24T06:30:43.265Z,69.47
2018-07-24T06:33:12.166Z,69.29
2018-07-24T06:35:41.303Z,68.71
2018-07-24T06:38:10.446Z,68.87
2018-07-24T06:40:39.343Z,68.15
2018-07-24T06:43:08.286Z,68.16
2018-07-24T06:45:37.829Z,67.34
2018-07-24T06:48:07.069Z,67.16
2018-07-24T06:50:35.972Z,65.87
2018-07-24T06:53:04.883Z,65.97
2018-07-24T06:55:34.069Z,65.14
2018-07-24T06:58:03.387Z,65.06
2018-07-24T07:00:32.298Z,64.81
2018-07-24T07:03:01.213Z,64.33
2018-07-24T07:05:30.128Z,64.57
2018-07-24T07:07:59.007Z,64.34
2018-07-24T07:10:27.934Z,63.94
2018-07-24T07:12:56.860Z,64.08
2018-07-24T07:15:25.793Z,63.97
2018-07-24T07:17:54.711Z,63.95
2018-07-24T07:20:23.747Z,64.06
2018-07-24T07:22:52.649Z,63.37
2018-07-24T07:25:21.549Z,63.02
2018-07-24T07:27:50.450Z,63.19
2018-07-24T07:30:19.384Z,63.23
2018-07-24T07:32:48.425Z,63.52
2018-07-24T07:35:17.332Z,62.58
2018-07-24T07:37:46.215Z,62.64
2018-07-24T07:40:15.129Z,62.92
2018-07-24T07:42:44.066Z,63.00
2018-07-24T07:45:13.032Z,62.55
2018-07-24T07:47:41.909Z,61.67
2018-07-24T07:50:10.830Z,61.71
2018-07-24T07:52:39.726Z,61.73
2018-07-24T07:55:08.635Z,61.98
2018-07-24T07:57:37.540Z,59.50
2018-07-24T08:00:06.968Z,59.07
2018-07-24T08:02:35.946Z,59.04
2018-07-24T08:05:04.761Z,58.63
2018-07-24T08:07:33.681Z,58.47
2018-07-24T08:10:02.577Z,57.95
2018-07-24T08:12:31.459Z,57.79
2018-07-24T08:15:00.379Z,57.44
2018-07-24T08:17:29.269Z,56.35
2018-07-24T08:19:58.256Z,56.90
2018-07-24T08:22:27.195Z,55.71
2018-07-24T08:24:56.107Z,54.54
2018-07-24T08:27:24.982Z,54.78
2018-07-24T08:29:53.877Z,54.37
2018-07-24T08:32:22.785Z,54.30
2018-07-24T08:34:51.896Z,53.58
2018-07-24T08:37:20.979Z,52.70
2018-07-24T08:39:49.892Z,52.10
2018-07-24T08:42:19.000Z,51.63
2018-07-24T08:44:47.930Z,51.12
2018-07-24T08:47:16.796Z,50.74
2018-07-24T08:49:45.739Z,49.89
2018-07-24T08:52:14.634Z,48.81
2018-07-24T08:54:43.688Z,49.38
2018-07-24T08:57:12.664Z,49.57
2018-07-24T08:59:41.834Z,49.65
2018-07-24T09:02:10.945Z,48.61
2018-07-24T09:04:40.130Z,48.43
2018-07-24T09:07:09.025Z,48.14
2018-07-24T09:09:37.922Z,48.67
2018-07-24T09:12:06.857Z,48.42
2018-07-24T09:14:35.749Z,48.37
2018-07-24T09:17:04.696Z,48.45
2018-07-24T09:19:33.563Z,48.23
2018-07-24T09:22:02.751Z,47.59
2018-07-24T09:24:31.673Z,47.08
2018-07-24T09:27:00.638Z,47.35
2018-07-24T09:29:29.459Z,46.91
2018-07-24T09:31:58.425Z,46.68
2018-07-24T09:34:27.273Z,47.05
2018-07-24T09:36:56.164Z,46.08
2018-07-24T09:39:25.047Z,45.85
2018-07-24T09:41:53.922Z,45.35
2018-07-24T09:44:22.841Z,45.42
2018-07-24T09:46:51.730Z,44.80
2018-07-24T09:49:20.742Z,45.11
2018-07-24T09:51:49.677Z,45.24
2018-07-24T09:54:18.581Z,45.91
2018-07-24T09:56:47.510Z,45.11
2018-07-24T09:59:16.471Z,45.35
2018-07-24T10:01:45.323Z,45.34
2018-07-24T10:04:14.239Z,44.79
2018-07-24T10:06:43.114Z,44.55
2018-07-24T10:09:12.042Z,44.90
2018-07-24T10:11:40.975Z,45.11
2018-07-24T10:14:09.881Z,45.41
2018-07-24T10:16:38.878Z,45.54
2018-07-24T10:19:07.709Z,45.80
2018-07-24T10:21:36.633Z,45.13
2018-07-24T10:24:05.572Z,44.84
2018-07-24T10:26:34.604Z,44.78
2018-07-24T10:29:03.541Z,44.99
2018-07-24T10:31:32.479Z,43.99
2018-07-24T10:34:01.404Z,43.49
2018-07-24T10:36:30.305Z,43.61
2018-07-24T10:38:59.196Z,43.48
2018-07-24T10:44:01.276Z,42.33
2018-07-24T10:46:30.191Z,42.24
2018-07-24T10:48:59.093Z,41.43
2018-07-24T10:51:28.056Z,41.72
2018-07-24T10:53:56.979Z,42.78
2018-07-24T10:56:26.075Z,42.43
2018-07-24T10:58:55.082Z,41.27
2018-07-24T11:01:24.138Z,41.31
2018-07-24T11:03:57.188Z,40.59
2018-07-24T11:06:26.425Z,39.84
2018-07-24T11:08:55.529Z,39.01
2018-07-24T11:11:28.161Z,38.56
2018-07-24T11:13:57.078Z,38.76
2018-07-24T11:16:25.979Z,39.14
2018-07-24T11:18:54.851Z,39.33
2018-07-24T11:21:23.781Z,39.26
2018-07-24T11:23:52.702Z,39.54
2018-07-24T11:26:21.614Z,39.00
2018-07-24T11:28:50.722Z,39.39
2018-07-24T11:31:19.637Z,39.74
2018-07-24T11:33:48.608Z,38.58
2018-07-24T11:36:17.561Z,38.26
2018-07-24T11:38:46.469Z,38.78
2018-07-24T11:41:15.360Z,38.64
2018-07-24T11:43:44.324Z,38.29
2018-07-24T11:46:13.228Z,37.59
2018-07-24T11:48:42.157Z,37.71
2018-07-24T11:51:11.137Z,37.21
2018-07-24T11:53:40.033Z,37.53
2018-07-24T11:56:09.217Z,37.55
2018-07-24T11:58:38.170Z,37.48
2018-07-24T12:01:07.019Z,37.17
2018-07-24T12:03:35.970Z,37.25
2018-07-24T12:06:04.994Z,36.58
2018-07-24T12:08:33.921Z,37.37
2018-07-24T12:11:02.809Z,37.60
2018-07-24T12:13:31.727Z,36.95
2018-07-24T12:16:00.637Z,36.19
2018-07-24T12:18:29.550Z,34.92
2018-07-24T12:20:58.450Z,35.71
2018-07-24T12:23:27.387Z,35.77
2018-07-24T12:25:56.295Z,36.16
2018-07-24T12:28:25.225Z,36.70
2018-07-24T12:30:54.140Z,36.50
2018-07-24T12:33:23.049Z,36.82
2018-07-24T12:35:52.019Z,36.52
2018-07-24T12:38:20.885Z,36.65
2018-07-24T12:40:49.820Z,36.81
2018-07-24T12:43:18.737Z,36.58
2018-07-24T12:45:47.671Z,35.88
2018-07-24T12:48:16.617Z,35.09
2018-07-24T12:50:45.549Z,35.36
2018-07-24T12:53:14.483Z,35.17
2018-07-24T12:55:43.453Z,34.19
2018-07-24T12:58:12.366Z,34.59
2018-07-24T13:00:41.293Z,33.80
2018-07-24T13:03:10.213Z,34.62
2018-07-24T13:05:39.201Z,34.72
2018-07-24T13:08:08.125Z,34.86
2018-07-24T13:10:37.067Z,35.30
2018-07-24T13:13:06.016Z,34.36
2018-07-24T13:15:34.901Z,34.00
2018-07-24T13:18:04.001Z,33.08
2018-07-24T13:20:33.086Z,32.57
2018-07-24T13:23:02.791Z,33.03
2018-07-24T13:25:31.760Z,32.94
2018-07-24T13:28:00.740Z,32.58
2018-07-24T13:30:29.622Z,33.23
2018-07-24T13:32:58.527Z,33.00
2018-07-24T13:35:27.429Z,33.81
2018-07-24T13:37:56.329Z,33.96
2018-07-24T13:40:25.400Z,34.02
2018-07-24T13:42:54.364Z,33.65
2018-07-24T13:45:23.277Z,33.19
2018-07-24T13:47:52.369Z,32.27
2018-07-24T13:50:21.309Z,32.92
2018-07-24T13:52:50.223Z,33.43
2018-07-24T13:55:19.136Z,33.27
2018-07-24T13:57:48.104Z,33.57
2018-07-24T14:00:17.262Z,33.16
2018-07-24T14:02:46.176Z,32.83
2018-07-24T14:05:15.056Z,32.12
2018-07-24T14:07:43.974Z,32.19
2018-07-24T14:10:12.893Z,32.86
2018-07-24T14:12:41.803Z,32.71
2018-07-24T14:15:10.768Z,33.00
2018-07-24T14:17:39.687Z,32.65
2018-07-24T14:20:12.577Z,32.94
2018-07-24T14:22:41.683Z,32.38
2018-07-24T14:25:10.636Z,32.02
2018-07-24T14:27:39.623Z,32.06
2018-07-24T14:30:09.188Z,31.88
2018-07-24T14:32:38.095Z,31.81
2018-07-24T14:35:07.185Z,32.90
2018-07-24T14:37:37.430Z,32.75
2018-07-24T14:40:06.727Z,32.32
2018-07-24T14:42:35.969Z,32.80
2018-07-24T14:45:05.063Z,33.05
2018-07-24T14:47:34.007Z,32.36
2018-07-24T14:50:03.916Z,32.70
2018-07-24T14:52:32.793Z,32.58
2018-07-24T14:58:26.018Z,32.21
2018-07-24T15:00:55.917Z,31.91
2018-07-24T15:03:24.914Z,31.96
2018-07-24T15:05:54.051Z,31.82
2018-07-24T16:24:55.694Z,31.19
2018-07-24T16:27:28.345Z,31.23
2018-07-24T16:30:03.848Z,31.40
2018-07-24T16:32:32.862Z,30.60
2018-07-24T16:35:01.923Z,30.86
2018-07-24T16:37:34.928Z,30.67
2018-07-24T16:40:04.198Z,30.02
2018-07-24T16:42:36.175Z,30.30
2018-07-24T16:45:10.329Z,29.71
2018-07-24T16:47:46.633Z,30.18
2018-07-24T16:50:16.640Z,29.87
2018-07-24T16:52:46.628Z,30.28
2018-07-24T16:55:21.966Z,30.69
2018-07-24T16:57:51.039Z,30.76
2018-07-24T17:00:24.909Z,31.65
2018-07-24T17:02:55.410Z,30.70
2018-07-24T17:05:43.655Z,31.04
2018-07-24T17:08:12.736Z,31.38
2018-07-24T17:10:41.855Z,31.97
2018-07-24T17:13:23.585Z,31.28
2018-07-24T17:15:53.746Z,31.73
2018-07-24T17:18:28.617Z,31.37
2018-07-24T17:21:01.842Z,31.89
2018-07-24T17:23:30.771Z,32.17
2018-07-24T17:26:04.415Z,32.02
2018-07-24T17:28:37.462Z,32.73
2018-07-24T17:31:08.596Z,32.20
2018-07-24T17:33:37.556Z,32.37
2018-07-24T17:36:08.455Z,33.39
2018-07-24T17:38:38.398Z,33.38
2018-07-24T17:41:11.430Z,33.72
2018-07-24T17:43:40.361Z,33.88
2018-07-24T17:46:14.479Z,34.04
2018-07-24T17:48:46.598Z,33.57
2018-07-24T17:51:16.559Z,33.99
2018-07-24T17:53:45.880Z,33.89
2018-07-24T17:56:15.330Z,34.03
2018-07-24T17:58:50.640Z,34.95
2018-07-24T18:01:19.585Z,34.55
2018-07-24T18:03:49.488Z,35.05
2018-07-24T18:06:36.892Z,35.77
2018-07-24T18:09:10.018Z,36.88
2018-07-24T18:11:40.974Z,37.37
2018-07-24T18:14:15.785Z,37.81
2018-07-24T18:16:45.751Z,38.69
2018-07-24T18:19:19.778Z,39.31
2018-07-24T18:21:53.932Z,39.50
2018-07-24T18:24:24.067Z,39.93
2018-07-24T18:26:54.966Z,40.14
2018-07-24T18:29:26.068Z,40.58
2018-07-24T18:31:55.633Z,40.65
2018-07-24T18:34:30.158Z,40.96
2018-07-24T18:37:03.166Z,40.81
2018-07-24T18:39:32.144Z,41.33
2018-07-24T18:42:05.660Z,41.47
2018-07-24T18:44:41.293Z,41.62
2018-07-24T18:47:12.201Z,42.18
2018-07-24T18:49:42.168Z,43.03
2018-07-24T18:52:11.098Z,43.02
2018-07-24T18:54:41.315Z,43.42
2018-07-24T18:57:14.803Z,43.94
2018-07-24T18:59:44.647Z,43.77
2018-07-24T19:02:13.853Z,43.65
2018-07-24T19:04:42.885Z,44.35
2018-07-24T19:07:12.596Z,44.20
2018-07-24T19:09:49.066Z,43.77
2018-07-24T19:12:19.327Z,44.44
2018-07-24T19:14:49.810Z,44.39
2018-07-24T19:17:23.860Z,44.32
2018-07-24T19:19:54.215Z,44.09
2018-07-24T19:22:23.530Z,44.34
2018-07-24T19:24:57.563Z,44.73
2018-07-24T19:27:26.676Z,44.67
2018-07-24T19:29:56.725Z,44.71
2018-07-24T19:32:26.753Z,44.67
2018-07-24T19:34:59.734Z,44.40
2018-07-24T19:37:34.348Z,44.68
2018-07-24T19:40:05.583Z,44.70
2018-07-24T19:42:34.754Z,44.90
2018-07-24T19:45:13.769Z,45.11
2018-07-24T19:47:42.725Z,45.18
2018-07-24T19:50:11.672Z,45.33
2018-07-24T19:52:43.745Z,45.67
2018-07-24T19:55:14.609Z,45.82
2018-07-24T19:57:48.932Z,45.90
2018-07-24T20:00:21.180Z,46.04
2018-07-24T20:02:54.349Z,46.43
2018-07-24T20:05:27.345Z,46.47
2018-07-24T20:07:58.307Z,46.60
2018-07-24T20:10:28.314Z,47.02
2018-07-24T20:12:58.401Z,47.16
2018-07-24T20:15:28.320Z,47.20
2018-07-24T20:17:57.306Z,47.33
2018-07-24T20:20:30.938Z,47.50
2018-07-24T20:23:00.097Z,47.70
2018-07-24T20:25:34.808Z,47.85
2018-07-24T20:28:27.151Z,48.05
2018-07-24T20:31:06.029Z,47.94
2018-07-24T20:33:46.984Z,48.28
2018-07-24T20:36:16.310Z,48.30
2018-07-24T20:38:48.753Z,48.60
2018-07-24T20:41:17.804Z,48.65
2018-07-24T20:43:55.273Z,48.74
2018-07-24T20:46:28.040Z,49.07
2018-07-24T20:48:57.029Z,49.14
2018-07-24T20:51:25.998Z,49.44
2018-07-24T20:53:55.974Z,49.47
2018-07-24T20:56:26.157Z,49.91
2018-07-24T20:58:58.667Z,50.24
2018-07-24T21:01:27.632Z,50.10
2018-07-24T21:04:01.174Z,50.22
2018-07-24T21:06:30.083Z,50.33
2018-07-24T21:09:04.072Z,50.47
2018-07-24T21:11:33.988Z,50.47
2018-07-24T21:14:09.679Z,51.02
2018-07-24T21:16:50.444Z,50.50
2018-07-24T21:19:21.510Z,49.17
2018-07-24T21:21:51.604Z,48.70
2018-07-24T21:24:25.467Z,48.76
2018-07-24T21:26:55.570Z,49.99
2018-07-24T21:29:24.499Z,50.45
2018-07-24T21:31:55.642Z,51.37
2018-07-24T21:34:32.345Z,52.23
2018-07-24T21:37:09.108Z,53.07
2018-07-24T21:39:51.026Z,53.21
2018-07-24T21:42:24.652Z,53.72
2018-07-24T21:44:59.052Z,54.61
2018-07-24T21:47:28.020Z,54.92
2018-07-24T21:50:13.822Z,55.11
2018-07-24T21:55:36.959Z,56.04
2018-07-24T21:58:12.766Z,56.23
2018-07-24T22:00:41.744Z,56.41
2018-07-24T22:03:31.216Z,57.12
2018-07-24T22:06:01.307Z,56.95
2018-07-24T22:08:30.185Z,56.81
2018-07-24T22:10:59.049Z,57.02
2018-07-24T22:13:27.944Z,57.23
2018-07-24T22:15:56.804Z,57.57
2018-07-24T22:18:25.712Z,57.72
2018-07-24T22:20:55.712Z,57.73
2018-07-24T22:23:24.596Z,58.09
2018-07-24T22:25:53.564Z,58.15
2018-07-24T22:28:22.490Z,58.38
2018-07-24T22:30:51.475Z,58.42
2018-07-24T22:33:20.350Z,58.67
2018-07-24T22:35:49.274Z,58.89
2018-07-24T22:41:11.930Z,59.16
2018-07-24T22:43:40.820Z,59.39
2018-07-24T22:49:04.352Z,59.76
2018-07-24T22:51:33.402Z,59.86
2018-07-24T22:54:02.244Z,59.95
2018-07-24T22:56:31.143Z,60.51
2018-07-24T22:59:00.046Z,60.12
2018-07-24T23:01:37.332Z,60.69
2018-07-24T23:04:06.429Z,60.71
2018-07-24T23:06:35.305Z,61.04
2018-07-24T23:09:16.618Z,61.13
2018-07-24T23:11:47.508Z,61.19
2018-07-24T23:14:16.393Z,61.44
2018-07-24T23:16:45.245Z,61.66
2018-07-24T23:19:14.153Z,61.72
2018-07-24T23:21:43.022Z,61.80
2018-07-24T23:24:11.960Z,61.71
2018-07-24T23:26:40.958Z,62.31
2018-07-24T23:29:09.833Z,62.63
2018-07-24T23:31:38.737Z,62.67
2018-07-24T23:34:07.670Z,62.65
2018-07-24T23:36:36.570Z,62.89
2018-07-24T23:39:11.539Z,62.87
2018-07-24T23:41:40.678Z,62.96
2018-07-24T23:44:09.774Z,63.21
2018-07-24T23:46:39.291Z,63.75
2018-07-24T23:49:08.211Z,63.75
2018-07-24T23:51:37.136Z,64.18
2018-07-24T23:54:07.080Z,64.17
2018-07-24T23:56:35.957Z,63.87
2018-07-24T23:59:11.887Z,64.09
